createdAt,value
2023-01-17T00:00:16.110Z,5.38
2023-01-17T00:01:16.015Z,5.44
2023-01-17T00:02:16.108Z,5.39
2023-01-17T00:03:16.018Z,5.39
2023-01-17T00:04:16.017Z,5.38
2023-01-17T00:05:15.967Z,5.44
2023-01-17T00:06:15.950Z,5.38
2023-01-17T00:07:15.953Z,5.36
2023-01-17T00:08:15.931Z,5.33
2023-01-17T00:09:15.914Z,5.35
2023-01-17T00:10:15.921Z,5.33
2023-01-17T00:11:15.900Z,5.30
2023-01-17T00:12:15.890Z,5.36
2023-01-17T00:13:15.863Z,5.36
2023-01-17T00:14:15.847Z,5.35
2023-01-17T00:15:15.836Z,5.32
2023-01-17T00:16:15.864Z,5.29
2023-01-17T00:17:15.821Z,5.29
2023-01-17T00:18:15.795Z,5.28
2023-01-17T00:19:15.801Z,5.28
2023-01-17T00:20:15.778Z,5.29
2023-01-17T00:21:15.777Z,5.28
2023-01-17T00:22:15.758Z,5.28
2023-01-17T00:23:15.728Z,5.25
2023-01-17T00:24:15.725Z,5.25
2023-01-17T00:25:15.698Z,5.26
2023-01-17T00:26:15.704Z,5.23
2023-01-17T00:27:15.695Z,5.23
2023-01-17T00:28:15.672Z,5.23
2023-01-17T00:29:15.648Z,5.17
2023-01-17T00:30:15.636Z,5.17
2023-01-17T00:31:15.710Z,5.21
2023-01-17T00:32:15.632Z,5.18
2023-01-17T00:33:15.602Z,5.18
2023-01-17T00:34:15.584Z,5.17
2023-01-17T00:35:15.589Z,5.18
2023-01-17T00:36:15.563Z,5.20
2023-01-17T00:37:15.544Z,5.17
2023-01-17T00:38:15.548Z,5.12
2023-01-17T00:39:15.520Z,5.17
2023-01-17T00:40:15.513Z,5.12
2023-01-17T00:41:15.495Z,5.15
2023-01-17T00:42:15.480Z,5.15
2023-01-17T00:43:15.482Z,5.14
2023-01-17T00:44:15.450Z,5.17
2023-01-17T00:45:15.437Z,5.15
2023-01-17T00:46:15.459Z,5.17
2023-01-17T00:47:15.418Z,5.14
2023-01-17T00:48:15.414Z,5.15
2023-01-17T00:49:15.388Z,5.11
2023-01-17T00:50:15.374Z,5.08
2023-01-17T00:51:15.381Z,5.12
2023-01-17T00:52:15.365Z,5.11
2023-01-17T00:53:15.346Z,5.14
2023-01-17T00:54:16.951Z,5.15
2023-01-17T00:55:15.311Z,5.11
2023-01-17T00:56:15.293Z,5.12
2023-01-17T00:57:15.280Z,5.11
2023-01-17T00:58:15.288Z,5.11
2023-01-17T00:59:15.257Z,5.08
2023-01-17T01:00:15.247Z,5.10
2023-01-17T01:01:15.355Z,5.08
2023-01-17T01:02:15.260Z,5.08
2023-01-17T01:03:15.239Z,5.08
2023-01-17T01:04:15.193Z,5.12
2023-01-17T01:05:15.180Z,5.10
2023-01-17T01:06:15.166Z,5.10
2023-01-17T01:07:15.172Z,5.08
2023-01-17T01:08:15.152Z,5.10
2023-01-17T01:09:15.126Z,5.04
2023-01-17T01:10:15.114Z,4.99
2023-01-17T01:11:15.101Z,4.99
2023-01-17T01:12:15.092Z,5.08
2023-01-17T01:13:15.088Z,5.05
2023-01-17T01:14:15.082Z,5.05
2023-01-17T01:15:15.045Z,5.07
2023-01-17T01:16:15.049Z,5.02
2023-01-17T01:17:15.027Z,4.97
2023-01-17T01:18:15.025Z,4.96
2023-01-17T01:19:14.996Z,4.97
2023-01-17T01:20:14.990Z,5.02
2023-01-17T01:21:14.972Z,4.96
2023-01-17T01:22:14.962Z,4.99
2023-01-17T01:23:14.982Z,5.02
2023-01-17T01:24:14.931Z,5.00
2023-01-17T01:25:14.916Z,5.00
2023-01-17T01:26:14.906Z,4.94
2023-01-17T01:27:14.896Z,4.94
2023-01-17T01:28:14.924Z,4.96
2023-01-17T01:29:14.867Z,4.94
2023-01-17T01:30:14.854Z,4.92
2023-01-17T01:31:14.886Z,4.94
2023-01-17T01:32:14.831Z,4.93
2023-01-17T01:33:14.836Z,4.90
2023-01-17T01:34:14.809Z,4.90
2023-01-17T01:35:14.795Z,4.89
2023-01-17T01:36:14.786Z,4.90
2023-01-17T01:37:14.775Z,4.93
2023-01-17T01:38:14.779Z,4.92
2023-01-17T01:39:14.764Z,4.89
2023-01-17T01:40:14.732Z,4.90
2023-01-17T01:41:14.716Z,4.84
2023-01-17T01:42:14.702Z,4.92
2023-01-17T01:43:14.700Z,4.87
2023-01-17T01:44:14.691Z,4.82
2023-01-17T01:45:14.666Z,4.87
2023-01-17T01:46:14.660Z,4.84
2023-01-17T01:47:14.657Z,4.84
2023-01-17T01:48:14.639Z,4.77
2023-01-17T01:49:14.625Z,4.78
2023-01-17T01:50:14.598Z,4.74
2023-01-17T01:51:14.589Z,4.74
2023-01-17T01:52:14.573Z,4.73
2023-01-17T01:53:14.562Z,4.70
2023-01-17T01:54:14.564Z,4.67
2023-01-17T01:55:14.572Z,4.63
2023-01-17T01:56:14.526Z,4.68
2023-01-17T01:57:14.511Z,4.68
2023-01-17T01:58:14.500Z,4.67
2023-01-17T01:59:14.497Z,4.62
2023-01-17T02:00:14.479Z,4.56
2023-01-17T02:01:14.571Z,4.53
2023-01-17T02:02:14.448Z,4.50
2023-01-17T02:03:14.444Z,4.48
2023-01-17T02:04:14.443Z,4.50
2023-01-17T02:05:14.408Z,4.50
2023-01-17T02:06:14.393Z,4.42
2023-01-17T02:07:14.382Z,4.42
2023-01-17T02:08:14.370Z,4.42
2023-01-17T02:09:14.369Z,4.37
2023-01-17T02:10:14.347Z,4.42
2023-01-17T02:11:14.357Z,4.40
2023-01-17T02:12:14.320Z,4.34
2023-01-17T02:13:14.308Z,4.34
2023-01-17T02:14:14.313Z,4.40
2023-01-17T02:15:14.283Z,4.38
2023-01-17T02:16:14.387Z,4.35
2023-01-17T02:17:14.266Z,4.35
2023-01-17T02:18:14.247Z,4.35
2023-01-17T02:19:14.251Z,4.34
2023-01-17T02:20:14.248Z,4.32
2023-01-17T02:21:14.208Z,4.31
2023-01-17T02:22:14.198Z,4.28
2023-01-17T02:23:14.193Z,4.26
2023-01-17T02:24:14.205Z,4.23
2023-01-17T02:25:14.159Z,4.26
2023-01-17T02:26:14.141Z,4.23
2023-01-17T02:27:14.153Z,4.24
2023-01-17T02:28:14.116Z,4.26
2023-01-17T02:29:14.119Z,4.23
2023-01-17T02:30:14.105Z,4.23
2023-01-17T02:31:14.146Z,4.23
2023-01-17T02:32:14.063Z,4.24
2023-01-17T02:33:14.054Z,4.24
2023-01-17T02:34:14.058Z,4.23
2023-01-17T02:35:14.030Z,4.22
2023-01-17T02:36:14.016Z,4.20
2023-01-17T02:37:14.007Z,4.17
2023-01-17T02:38:13.995Z,4.19
2023-01-17T02:39:14.014Z,4.19
2023-01-17T02:40:13.966Z,4.17
2023-01-17T02:41:13.955Z,4.19
2023-01-17T02:42:13.939Z,4.20
2023-01-17T02:43:13.950Z,4.19
2023-01-17T02:44:13.915Z,4.17
2023-01-17T02:45:13.922Z,4.22
2023-01-17T02:46:13.901Z,4.19
2023-01-17T02:47:13.879Z,4.16
2023-01-17T02:48:13.870Z,4.19
2023-01-17T02:49:13.859Z,4.16
2023-01-17T02:50:13.865Z,4.17
2023-01-17T02:51:13.836Z,4.22
2023-01-17T02:52:13.828Z,4.17
2023-01-17T02:53:13.803Z,4.20
2023-01-17T02:54:13.792Z,4.16
2023-01-17T02:55:13.797Z,4.19
2023-01-17T02:56:13.770Z,4.17
2023-01-17T02:57:13.756Z,4.22
2023-01-17T02:58:13.745Z,4.24
2023-01-17T02:59:13.755Z,4.22
2023-01-17T03:00:13.737Z,4.23
2023-01-17T03:01:13.817Z,4.22
2023-01-17T03:02:13.759Z,4.24
2023-01-17T03:03:13.684Z,4.14
2023-01-17T03:04:13.673Z,4.14
2023-01-17T03:05:13.668Z,4.16
2023-01-17T03:06:13.643Z,4.19
2023-01-17T03:07:13.634Z,4.17
2023-01-17T03:08:13.616Z,4.17
2023-01-17T03:09:13.601Z,4.16
2023-01-17T03:10:13.605Z,4.20
2023-01-17T03:11:13.582Z,4.22
2023-01-17T03:12:13.592Z,4.23
2023-01-17T03:13:13.559Z,4.24
2023-01-17T03:14:13.538Z,4.22
2023-01-17T03:15:13.562Z,4.22
2023-01-17T03:16:13.554Z,4.22
2023-01-17T03:17:13.505Z,4.16
2023-01-17T03:18:13.496Z,4.17
2023-01-17T03:19:13.491Z,4.20
2023-01-17T03:20:13.532Z,4.19
2023-01-17T03:21:13.453Z,4.22
2023-01-17T03:22:13.453Z,4.20
2023-01-17T03:23:13.427Z,4.20
2023-01-17T03:24:13.412Z,4.23
2023-01-17T03:25:13.420Z,4.22
2023-01-17T03:26:13.408Z,4.23
2023-01-17T03:27:13.380Z,4.19
2023-01-17T03:28:13.372Z,4.19
2023-01-17T03:29:13.355Z,4.19
2023-01-17T03:30:13.354Z,4.19
2023-01-17T03:31:13.349Z,4.17
2023-01-17T03:32:13.318Z,4.22
2023-01-17T03:33:13.302Z,4.20
2023-01-17T03:34:13.288Z,4.17
2023-01-17T03:35:13.293Z,4.17
2023-01-17T03:36:13.268Z,4.16
2023-01-17T03:37:13.258Z,4.19
2023-01-17T03:38:13.237Z,4.19
2023-01-17T03:39:13.233Z,4.17
2023-01-17T03:40:13.252Z,4.19
2023-01-17T03:41:13.206Z,4.22
2023-01-17T03:42:13.189Z,4.20
2023-01-17T03:43:13.176Z,4.16
2023-01-17T03:44:13.166Z,4.17
2023-01-17T03:45:14.174Z,4.19
2023-01-17T03:46:13.154Z,4.16
2023-01-17T03:47:13.167Z,4.14
2023-01-17T03:48:13.135Z,4.12
2023-01-17T03:49:13.103Z,4.10
2023-01-17T03:50:13.113Z,4.12
2023-01-17T03:51:13.079Z,4.06
2023-01-17T03:52:13.083Z,4.05
2023-01-17T03:53:13.053Z,4.12
2023-01-17T03:54:13.035Z,4.10
2023-01-17T03:55:13.028Z,4.06
2023-01-17T03:56:13.035Z,4.05
2023-01-17T03:57:13.006Z,4.12
2023-01-17T03:58:13.004Z,4.10
2023-01-17T03:59:13.341Z,4.10
2023-01-17T04:00:12.987Z,4.10
2023-01-17T04:01:13.053Z,4.04
2023-01-17T04:02:13.039Z,4.08
2023-01-17T04:03:12.963Z,4.10
2023-01-17T04:04:12.918Z,4.12
2023-01-17T04:05:12.909Z,4.06
2023-01-17T04:06:12.918Z,4.10
2023-01-17T04:07:12.878Z,4.08
2023-01-17T04:08:12.866Z,4.06
2023-01-17T04:09:12.855Z,4.06
2023-01-17T04:10:12.840Z,4.05
2023-01-17T04:11:12.852Z,4.06
2023-01-17T04:12:12.815Z,4.05
2023-01-17T04:13:12.804Z,4.06
2023-01-17T04:14:12.793Z,4.10
2023-01-17T04:15:12.781Z,4.08
2023-01-17T04:16:12.807Z,4.02
2023-01-17T04:17:12.757Z,4.01
2023-01-17T04:18:12.747Z,4.02
2023-01-17T04:19:12.776Z,4.05
2023-01-17T04:20:12.715Z,4.05
2023-01-17T04:21:12.727Z,4.02
2023-01-17T04:22:12.696Z,4.05
2023-01-17T04:23:12.683Z,4.06
2023-01-17T04:24:12.661Z,4.01
2023-01-17T04:25:12.652Z,4.04
2023-01-17T04:26:12.659Z,4.05
2023-01-17T04:27:12.627Z,3.99
2023-01-17T04:28:12.660Z,4.02
2023-01-17T04:29:12.612Z,4.02
2023-01-17T04:30:12.610Z,3.99
2023-01-17T04:31:12.782Z,3.96
2023-01-17T04:32:12.583Z,3.96
2023-01-17T04:33:12.563Z,3.99
2023-01-17T04:34:12.550Z,3.96
2023-01-17T04:35:12.547Z,3.96
2023-01-17T04:36:12.551Z,3.94
2023-01-17T04:37:12.512Z,3.91
2023-01-17T04:38:12.489Z,3.92
2023-01-17T04:39:12.483Z,3.88
2023-01-17T04:40:12.472Z,3.87
2023-01-17T04:41:12.470Z,3.91
2023-01-17T04:42:12.443Z,3.84
2023-01-17T04:43:12.431Z,3.88
2023-01-17T04:44:12.419Z,3.88
2023-01-17T04:45:12.413Z,3.86
2023-01-17T04:46:12.528Z,3.88
2023-01-17T04:47:12.394Z,3.84
2023-01-17T04:48:12.380Z,3.91
2023-01-17T04:49:12.353Z,3.84
2023-01-17T04:50:12.348Z,3.84
2023-01-17T04:51:12.375Z,3.84
2023-01-17T04:52:12.316Z,3.86
2023-01-17T04:53:12.309Z,3.81
2023-01-17T04:54:12.301Z,3.81
2023-01-17T04:55:12.286Z,3.86
2023-01-17T04:56:12.288Z,3.84
2023-01-17T04:57:12.260Z,3.83
2023-01-17T04:58:12.241Z,3.83
2023-01-17T04:59:12.233Z,3.83
2023-01-17T05:00:12.233Z,3.81
2023-01-17T05:01:12.330Z,3.80
2023-01-17T05:02:12.213Z,3.78
2023-01-17T05:03:12.188Z,3.81
2023-01-17T05:04:12.182Z,3.84
2023-01-17T05:05:12.161Z,3.81
2023-01-17T05:06:12.148Z,3.81
2023-01-17T05:07:12.174Z,3.78
2023-01-17T05:08:12.128Z,3.78
2023-01-17T05:09:12.114Z,3.78
2023-01-17T05:10:12.093Z,3.80
2023-01-17T05:11:12.103Z,3.77
2023-01-17T05:12:12.091Z,3.77
2023-01-17T05:13:12.058Z,3.74
2023-01-17T05:14:12.050Z,3.78
2023-01-17T05:15:12.055Z,3.76
2023-01-17T05:16:12.041Z,3.74
2023-01-17T05:17:12.047Z,3.70
2023-01-17T05:18:12.018Z,3.65
2023-01-17T05:19:11.983Z,3.65
2023-01-17T05:20:11.972Z,3.65
2023-01-17T05:21:11.956Z,3.58
2023-01-17T05:22:11.963Z,3.58
2023-01-17T05:23:11.984Z,3.56
2023-01-17T05:24:11.935Z,3.51
2023-01-17T05:25:11.909Z,3.48
2023-01-17T05:26:11.895Z,3.44
2023-01-17T05:27:11.896Z,3.45
2023-01-17T05:28:11.876Z,3.44
2023-01-17T05:29:11.868Z,3.32
2023-01-17T05:30:11.842Z,3.29
2023-01-17T05:31:11.913Z,3.28
2023-01-17T05:32:11.851Z,3.26
2023-01-17T05:33:11.830Z,3.25
2023-01-17T05:34:11.805Z,3.19
2023-01-17T05:35:11.787Z,3.14
2023-01-17T05:36:11.787Z,3.13
2023-01-17T05:37:11.783Z,3.14
2023-01-17T05:38:11.752Z,3.05
2023-01-17T05:39:11.773Z,3.05
2023-01-17T05:40:11.730Z,3.10
2023-01-17T05:41:11.734Z,3.05
2023-01-17T05:42:11.726Z,3.03
2023-01-17T05:43:11.692Z,3.00
2023-01-17T05:44:11.673Z,3.00
2023-01-17T05:45:11.658Z,2.93
2023-01-17T05:46:11.706Z,2.97
2023-01-17T05:47:11.661Z,2.86
2023-01-17T05:48:11.619Z,2.85
2023-01-17T05:49:11.606Z,2.86
2023-01-17T05:50:11.598Z,2.82
2023-01-17T05:51:11.598Z,2.79
2023-01-17T05:52:11.583Z,2.75
2023-01-17T05:53:11.782Z,2.69
2023-01-17T05:54:11.543Z,2.64
2023-01-17T05:55:11.556Z,2.69
2023-01-17T05:56:11.527Z,2.71
2023-01-17T05:57:11.544Z,2.65
2023-01-17T05:58:11.496Z,2.62
2023-01-17T05:59:14.001Z,2.65
2023-01-17T06:00:11.480Z,2.62
2023-01-17T06:01:11.481Z,2.57
2023-01-17T06:02:11.481Z,2.56
2023-01-17T06:03:11.434Z,2.56
2023-01-17T06:04:11.433Z,2.53
2023-01-17T06:05:11.408Z,2.51
2023-01-17T06:06:11.391Z,2.50
2023-01-17T06:07:11.380Z,2.47
2023-01-17T06:08:11.381Z,2.46
2023-01-17T06:09:11.352Z,2.50
2023-01-17T06:10:11.343Z,2.47
2023-01-17T06:11:11.358Z,2.44
2023-01-17T06:12:11.319Z,2.38
2023-01-17T06:13:11.322Z,2.42
2023-01-17T06:14:11.304Z,2.43
2023-01-17T06:15:11.277Z,2.47
2023-01-17T06:16:11.432Z,2.44
2023-01-17T06:17:11.251Z,2.38
2023-01-17T06:18:11.258Z,2.44
2023-01-17T06:19:11.227Z,2.44
2023-01-17T06:20:11.217Z,2.44
2023-01-17T06:21:11.204Z,2.44
2023-01-17T06:22:11.196Z,2.36
2023-01-17T06:23:11.187Z,2.39
2023-01-17T06:24:11.165Z,2.44
2023-01-17T06:25:11.159Z,2.46
2023-01-17T06:26:11.144Z,2.43
2023-01-17T06:27:11.166Z,2.49
2023-01-17T06:28:11.127Z,2.57
2023-01-17T06:29:11.102Z,2.56
2023-01-17T06:30:11.104Z,2.57
2023-01-17T06:31:11.138Z,2.50
2023-01-17T06:32:11.088Z,2.50
2023-01-17T06:33:11.060Z,2.43
2023-01-17T06:34:11.041Z,2.43
2023-01-17T06:35:11.025Z,2.43
2023-01-17T06:36:11.016Z,2.38
2023-01-17T06:37:10.998Z,2.39
2023-01-17T06:38:11.004Z,2.43
2023-01-17T06:39:11.003Z,2.42
2023-01-17T06:40:10.958Z,2.39
2023-01-17T06:41:10.957Z,2.38
2023-01-17T06:42:10.933Z,2.42
2023-01-17T06:43:10.963Z,2.39
2023-01-17T06:44:10.915Z,2.39
2023-01-17T06:45:10.901Z,2.38
2023-01-17T06:46:10.897Z,2.38
2023-01-17T06:47:10.869Z,2.31
2023-01-17T06:48:10.877Z,2.31
2023-01-17T06:49:10.844Z,2.28
2023-01-17T06:50:10.833Z,2.25
2023-01-17T06:51:10.828Z,2.25
2023-01-17T06:52:10.803Z,2.22
2023-01-17T06:53:10.805Z,2.17
2023-01-17T06:54:10.779Z,2.18
2023-01-17T06:55:10.769Z,2.17
2023-01-17T06:56:10.753Z,2.15
2023-01-17T06:57:10.743Z,2.15
2023-01-17T06:58:10.764Z,2.17
2023-01-17T06:59:10.743Z,2.22
2023-01-17T07:00:10.711Z,2.24
2023-01-17T07:01:10.835Z,2.24
2023-01-17T07:02:10.680Z,2.28
2023-01-17T07:03:10.684Z,2.32
2023-01-17T07:04:10.703Z,2.33
2023-01-17T07:05:10.660Z,2.35
2023-01-17T07:06:10.630Z,2.33
2023-01-17T07:07:10.618Z,2.39
2023-01-17T07:08:10.624Z,2.39
2023-01-17T07:09:10.589Z,2.43
2023-01-17T07:10:10.578Z,2.47
2023-01-17T07:11:10.569Z,2.43
2023-01-17T07:12:10.559Z,2.47
2023-01-17T07:13:10.554Z,2.47
2023-01-17T07:14:10.541Z,2.44
2023-01-17T07:15:10.550Z,2.46
2023-01-17T07:16:10.518Z,2.47
2023-01-17T07:17:10.498Z,2.46
2023-01-17T07:18:10.481Z,2.43
2023-01-17T07:19:10.481Z,2.44
2023-01-17T07:20:10.460Z,2.44
2023-01-17T07:21:10.458Z,2.42
2023-01-17T07:22:10.427Z,2.46
2023-01-17T07:23:10.418Z,2.50
2023-01-17T07:24:10.427Z,2.47
2023-01-17T07:25:10.383Z,2.39
2023-01-17T07:26:10.375Z,2.33
2023-01-17T07:27:10.362Z,2.32
2023-01-17T07:28:10.356Z,2.26
2023-01-17T07:29:10.354Z,2.28
2023-01-17T07:30:10.325Z,2.20
2023-01-17T07:31:10.393Z,2.18
2023-01-17T07:32:10.309Z,2.17
2023-01-17T07:33:10.288Z,2.15
2023-01-17T07:34:10.295Z,2.10
2023-01-17T07:35:10.263Z,2.04
2023-01-17T07:36:10.250Z,1.95
2023-01-17T07:37:10.238Z,1.94
2023-01-17T07:38:10.225Z,1.91
2023-01-17T07:39:10.229Z,1.85
2023-01-17T07:40:10.199Z,1.91
2023-01-17T07:41:11.120Z,1.89
2023-01-17T07:42:10.181Z,1.92
2023-01-17T07:43:10.161Z,1.89
2023-01-17T07:44:10.272Z,1.87
2023-01-17T07:45:10.129Z,1.91
2023-01-17T07:46:10.124Z,1.91
2023-01-17T07:47:10.138Z,1.95
2023-01-17T07:48:10.103Z,1.99
2023-01-17T07:49:10.102Z,2.06
2023-01-17T07:50:10.112Z,2.08
2023-01-17T07:51:10.059Z,2.08
2023-01-17T07:52:10.045Z,2.10
2023-01-17T07:53:10.062Z,2.13
2023-01-17T07:54:10.042Z,2.11
2023-01-17T07:55:10.007Z,2.18
2023-01-17T07:56:09.992Z,2.17
2023-01-17T07:57:09.981Z,2.14
2023-01-17T07:58:09.981Z,2.18
2023-01-17T07:59:09.969Z,2.15
2023-01-17T08:00:09.947Z,2.18
2023-01-17T08:01:10.145Z,2.17
2023-01-17T08:02:09.948Z,2.17
2023-01-17T08:03:09.922Z,2.17
2023-01-17T08:04:09.953Z,2.14
2023-01-17T08:05:09.878Z,2.08
2023-01-17T08:06:09.870Z,2.06
2023-01-17T08:07:09.851Z,1.99
2023-01-17T08:08:09.839Z,1.89
2023-01-17T08:09:09.851Z,1.81
2023-01-17T08:10:09.813Z,1.76
2023-01-17T08:11:09.803Z,1.71
2023-01-17T08:12:09.791Z,1.71
2023-01-17T08:13:09.776Z,1.70
2023-01-17T08:14:09.781Z,1.78
2023-01-17T08:15:09.749Z,1.91
2023-01-17T08:16:09.745Z,1.94
2023-01-17T08:17:09.723Z,1.99
2023-01-17T08:18:09.712Z,2.08
2023-01-17T08:19:09.739Z,2.14
2023-01-17T08:20:09.689Z,2.22
2023-01-17T08:21:09.675Z,2.25
2023-01-17T08:22:09.663Z,2.31
2023-01-17T08:23:09.657Z,2.35
2023-01-17T08:24:09.669Z,2.38
2023-01-17T08:25:09.623Z,2.46
2023-01-17T08:26:09.613Z,2.49
2023-01-17T08:27:09.599Z,2.60
2023-01-17T08:28:09.585Z,2.67
2023-01-17T08:29:09.583Z,2.69
2023-01-17T08:30:09.601Z,2.71
2023-01-17T08:31:09.569Z,2.92
2023-01-17T08:32:09.544Z,3.51
2023-01-17T08:33:09.526Z,4.38
2023-01-17T08:34:09.550Z,5.26
2023-01-17T08:35:09.555Z,5.68
2023-01-17T08:36:09.488Z,5.75
2023-01-17T08:37:09.471Z,5.79
2023-01-17T08:38:09.458Z,5.86
2023-01-17T08:39:09.456Z,6.69
2023-01-17T08:40:09.451Z,7.61
2023-01-17T08:41:09.419Z,8.00
2023-01-17T08:42:09.404Z,8.51
2023-01-17T08:43:09.399Z,9.16
2023-01-17T08:44:09.386Z,9.43
2023-01-17T08:45:09.395Z,9.89
2023-01-17T08:46:09.396Z,10.01
2023-01-17T08:47:09.339Z,10.12
2023-01-17T08:48:09.327Z,10.60
2023-01-17T08:49:09.320Z,11.15
2023-01-17T08:50:09.318Z,11.80
2023-01-17T08:51:09.328Z,12.09
2023-01-17T08:52:09.281Z,12.03
2023-01-17T08:53:09.262Z,12.21
2023-01-17T08:54:09.259Z,12.03
2023-01-17T08:55:09.251Z,12.21
2023-01-17T08:56:09.226Z,12.79
2023-01-17T08:57:09.219Z,12.90
2023-01-17T08:58:09.197Z,12.76
2023-01-17T08:59:09.193Z,11.97
2023-01-17T09:00:09.221Z,11.52
2023-01-17T09:01:09.375Z,12.06
2023-01-17T09:02:09.285Z,12.18
2023-01-17T09:03:09.132Z,12.54
2023-01-17T09:04:09.265Z,12.85
2023-01-17T09:05:09.132Z,13.04
2023-01-17T09:06:09.105Z,11.59
2023-01-17T09:07:09.106Z,12.02
2023-01-17T09:08:09.092Z,11.72
2023-01-17T09:09:09.059Z,11.07
2023-01-17T09:10:09.053Z,10.35
2023-01-17T09:11:09.033Z,10.60
2023-01-17T09:12:09.030Z,10.75
2023-01-17T09:13:09.017Z,11.02
2023-01-17T09:14:08.990Z,10.97
2023-01-17T09:15:08.987Z,10.74
2023-01-17T09:16:08.966Z,11.07
2023-01-17T09:17:08.948Z,11.15
2023-01-17T09:18:08.936Z,11.32
2023-01-17T09:19:08.937Z,11.44
2023-01-17T09:20:08.929Z,11.57
2023-01-17T09:21:08.902Z,11.73
2023-01-17T09:22:08.888Z,12.04
2023-01-17T09:23:08.896Z,12.45
2023-01-17T09:24:08.863Z,12.07
2023-01-17T09:25:08.861Z,10.99
2023-01-17T09:26:08.840Z,10.22
2023-01-17T09:27:08.887Z,9.69
2023-01-17T09:28:08.811Z,9.64
2023-01-17T09:29:08.796Z,9.65
2023-01-17T09:30:08.806Z,9.47
2023-01-17T09:31:08.876Z,10.34
2023-01-17T09:32:08.762Z,11.10
2023-01-17T09:33:08.744Z,11.69
2023-01-17T09:34:08.738Z,11.29
2023-01-17T09:35:08.745Z,11.04
2023-01-17T09:36:08.705Z,10.82
2023-01-17T09:37:08.695Z,11.18
2023-01-17T09:38:08.677Z,10.96
2023-01-17T09:39:08.688Z,11.52
2023-01-17T09:40:08.677Z,12.03
2023-01-17T09:41:08.641Z,12.57
2023-01-17T09:42:08.632Z,12.61
2023-01-17T09:43:08.612Z,12.70
2023-01-17T09:44:08.606Z,13.12
2023-01-17T09:45:08.593Z,13.71
2023-01-17T09:46:08.685Z,14.03
2023-01-17T09:47:08.628Z,14.12
2023-01-17T09:48:08.550Z,13.90
2023-01-17T09:49:08.581Z,12.90
2023-01-17T09:50:08.565Z,11.94
2023-01-17T09:51:08.554Z,11.60
2023-01-17T09:52:08.536Z,11.29
2023-01-17T09:53:08.497Z,11.44
2023-01-17T09:54:08.481Z,11.91
2023-01-17T09:55:08.478Z,12.47
2023-01-17T09:56:08.487Z,12.91
2023-01-17T09:57:08.436Z,13.31
2023-01-17T09:58:08.422Z,12.50
2023-01-17T09:59:08.432Z,12.27
2023-01-17T10:00:08.405Z,12.57
2023-01-17T10:01:08.685Z,12.25
2023-01-17T10:02:08.544Z,12.68
2023-01-17T10:03:08.500Z,13.13
2023-01-17T10:04:08.485Z,13.77
2023-01-17T10:05:08.469Z,13.42
2023-01-17T10:06:08.341Z,12.42
2023-01-17T10:07:08.308Z,12.06
2023-01-17T10:08:08.293Z,11.88
2023-01-17T10:09:08.303Z,11.18
2023-01-17T10:10:08.283Z,10.99
2023-01-17T10:11:08.299Z,11.11
2023-01-17T10:12:08.246Z,10.72
2023-01-17T10:13:08.231Z,10.05
2023-01-17T10:14:08.230Z,10.60
2023-01-17T10:15:08.217Z,11.17
2023-01-17T10:16:08.212Z,11.22
2023-01-17T10:17:08.184Z,11.14
2023-01-17T10:18:08.170Z,11.07
2023-01-17T10:19:08.164Z,11.60
2023-01-17T10:20:08.144Z,11.55
2023-01-17T10:21:08.149Z,10.89
2023-01-17T10:22:08.121Z,11.02
2023-01-17T10:23:08.139Z,11.29
2023-01-17T10:24:08.097Z,11.36
2023-01-17T10:25:08.087Z,11.37
2023-01-17T10:26:08.092Z,12.04
2023-01-17T10:27:08.112Z,11.87
2023-01-17T10:28:08.049Z,11.00
2023-01-17T10:29:08.036Z,10.61
2023-01-17T10:30:08.029Z,10.84
2023-01-17T10:31:08.021Z,10.86
2023-01-17T10:32:07.988Z,11.27
2023-01-17T10:33:07.979Z,11.63
2023-01-17T10:34:07.968Z,10.99
2023-01-17T10:35:07.956Z,10.76
2023-01-17T10:36:07.960Z,10.64
2023-01-17T10:37:07.935Z,9.98
2023-01-17T10:38:07.919Z,9.51
2023-01-17T10:39:07.908Z,10.28
2023-01-17T10:40:07.887Z,10.86
2023-01-17T10:41:07.960Z,10.87
2023-01-17T10:42:07.869Z,11.29
2023-01-17T10:43:07.876Z,10.86
2023-01-17T10:44:07.843Z,10.68
2023-01-17T10:45:07.836Z,11.22
2023-01-17T10:46:07.870Z,11.60
2023-01-17T10:47:07.801Z,12.13
2023-01-17T10:48:07.790Z,11.62
2023-01-17T10:49:07.780Z,11.88
2023-01-17T10:50:07.762Z,11.65
2023-01-17T10:51:07.765Z,11.37
2023-01-17T10:52:07.737Z,10.71
2023-01-17T10:53:07.729Z,9.76
2023-01-17T10:54:07.737Z,9.79
2023-01-17T10:55:07.708Z,10.01
2023-01-17T10:56:07.704Z,10.15
2023-01-17T10:57:07.675Z,10.17
2023-01-17T10:58:07.661Z,10.56
2023-01-17T10:59:07.678Z,10.90
2023-01-17T11:00:07.641Z,11.19
2023-01-17T11:01:07.733Z,10.87
2023-01-17T11:02:07.747Z,10.59
2023-01-17T11:03:07.653Z,11.50
2023-01-17T11:04:07.580Z,12.04
2023-01-17T11:05:07.574Z,12.86
2023-01-17T11:06:07.562Z,13.16
2023-01-17T11:07:07.562Z,13.15
2023-01-17T11:08:07.533Z,12.24
2023-01-17T11:09:07.524Z,12.10
2023-01-17T11:10:07.512Z,12.15
2023-01-17T11:11:07.511Z,12.37
2023-01-17T11:12:07.505Z,11.91
2023-01-17T11:13:07.469Z,11.63
2023-01-17T11:14:07.456Z,11.08
2023-01-17T11:15:07.468Z,10.93
2023-01-17T11:16:07.505Z,11.62
2023-01-17T11:17:07.441Z,12.60
2023-01-17T11:18:07.411Z,13.22
2023-01-17T11:19:07.395Z,11.70
2023-01-17T11:20:07.380Z,11.25
2023-01-17T11:21:07.367Z,10.40
2023-01-17T11:22:07.372Z,10.69
2023-01-17T11:23:07.343Z,11.02
2023-01-17T11:24:07.326Z,11.48
2023-01-17T11:25:07.316Z,12.00
2023-01-17T11:26:07.304Z,12.18
2023-01-17T11:27:07.312Z,12.27
2023-01-17T11:28:07.289Z,11.97
2023-01-17T11:29:07.269Z,11.99
2023-01-17T11:30:07.253Z,11.65
2023-01-17T11:31:07.398Z,11.35
2023-01-17T11:32:07.243Z,9.73
2023-01-17T11:33:07.225Z,9.11
2023-01-17T11:34:07.199Z,8.33
2023-01-17T11:35:07.202Z,8.28
2023-01-17T11:36:07.177Z,8.81
2023-01-17T11:37:07.178Z,9.62
2023-01-17T11:38:07.158Z,10.26
2023-01-17T11:39:07.147Z,11.14
2023-01-17T11:40:07.123Z,10.59
2023-01-17T11:41:07.110Z,10.75
2023-01-17T11:42:07.115Z,10.67
2023-01-17T11:43:07.084Z,10.19
2023-01-17T11:44:07.076Z,10.16
2023-01-17T11:45:07.063Z,10.67
2023-01-17T11:46:07.165Z,10.93
2023-01-17T11:47:07.077Z,10.97
2023-01-17T11:48:07.023Z,10.67
2023-01-17T11:49:07.011Z,10.57
2023-01-17T11:50:06.994Z,10.49
2023-01-17T11:51:06.990Z,10.75
2023-01-17T11:52:06.990Z,10.99
2023-01-17T11:53:06.963Z,11.55
2023-01-17T11:54:06.944Z,11.60
2023-01-17T11:55:06.933Z,12.03
2023-01-17T11:56:06.914Z,12.13
2023-01-17T11:57:06.917Z,11.94
2023-01-17T11:58:06.892Z,11.69
2023-01-17T11:59:06.882Z,11.37
2023-01-17T12:00:06.866Z,10.93
2023-01-17T12:01:06.904Z,10.67
2023-01-17T12:02:07.171Z,10.59
2023-01-17T12:03:06.847Z,10.86
2023-01-17T12:04:06.859Z,10.69
2023-01-17T12:05:06.877Z,10.42
2023-01-17T12:06:06.805Z,10.13
2023-01-17T12:07:06.777Z,9.65
2023-01-17T12:08:06.777Z,9.91
2023-01-17T12:09:06.752Z,10.31
2023-01-17T12:10:06.738Z,10.34
2023-01-17T12:11:06.728Z,10.37
2023-01-17T12:12:06.710Z,10.42
2023-01-17T12:13:06.713Z,10.63
2023-01-17T12:14:06.685Z,10.17
2023-01-17T12:15:06.693Z,10.13
2023-01-17T12:16:06.698Z,10.22
2023-01-17T12:17:06.680Z,10.02
2023-01-17T12:18:06.648Z,9.79
2023-01-17T12:19:06.648Z,9.62
2023-01-17T12:20:06.623Z,9.48
2023-01-17T12:21:06.594Z,9.89
2023-01-17T12:22:06.583Z,10.19
2023-01-17T12:23:06.597Z,10.22
2023-01-17T12:24:06.553Z,10.61
2023-01-17T12:25:06.544Z,10.93
2023-01-17T12:26:06.526Z,11.23
2023-01-17T12:27:06.519Z,11.44
2023-01-17T12:28:06.533Z,10.81
2023-01-17T12:29:06.489Z,10.26
2023-01-17T12:30:06.474Z,10.10
2023-01-17T12:31:06.471Z,10.30
2023-01-17T12:32:06.454Z,10.48
2023-01-17T12:33:06.451Z,10.44
2023-01-17T12:34:07.985Z,10.49
2023-01-17T12:35:06.435Z,10.35
2023-01-17T12:36:06.395Z,10.30
2023-01-17T12:37:06.384Z,10.53
2023-01-17T12:38:06.394Z,10.41
2023-01-17T12:39:06.353Z,10.44
2023-01-17T12:40:06.353Z,10.51
2023-01-17T12:41:06.330Z,10.74
2023-01-17T12:42:06.320Z,10.82
2023-01-17T12:43:06.325Z,10.16
2023-01-17T12:44:06.298Z,8.95
2023-01-17T12:45:06.307Z,8.41
2023-01-17T12:46:06.264Z,7.69
2023-01-17T12:47:06.252Z,8.20
2023-01-17T12:48:06.251Z,8.16
2023-01-17T12:49:06.225Z,8.38
2023-01-17T12:50:06.210Z,8.46
2023-01-17T12:51:06.233Z,8.24
2023-01-17T12:52:06.186Z,7.97
2023-01-17T12:53:06.189Z,7.80
2023-01-17T12:54:06.155Z,7.51
2023-01-17T12:55:06.150Z,7.28
2023-01-17T12:56:06.136Z,7.24
2023-01-17T12:57:06.117Z,7.11
2023-01-17T12:58:06.117Z,6.97
2023-01-17T12:59:06.096Z,6.89
2023-01-17T13:00:06.093Z,6.87
2023-01-17T13:01:06.158Z,6.82
2023-01-17T13:02:06.102Z,6.72
2023-01-17T13:03:06.055Z,6.74
2023-01-17T13:04:06.031Z,6.48
2023-01-17T13:05:06.015Z,6.49
2023-01-17T13:06:06.015Z,6.28
2023-01-17T13:07:06.010Z,6.19
2023-01-17T13:08:05.991Z,6.22
2023-01-17T13:09:05.978Z,6.20
2023-01-17T13:10:05.949Z,6.12
2023-01-17T13:11:05.940Z,6.05